sensor_id;sensor_type;location;lat;lon;timestamp;temperature;humidity
20398;DHT22;10358;49.590;11.030;2024-02-16T00:02:04;7.20;99.90
20398;DHT22;10358;49.590;11.030;2024-02-16T00:04:30;7.20;99.90
20398;DHT22;10358;49.590;11.030;2024-02-16T00:06:56;7.20;99.90
20398;DHT22;10358;49.590;11.030;2024-02-16T00:09:21;7.20;99.90
20398;DHT22;10358;49.590;11.030;2024-02-16T00:11:47;7.20;99.90
20398;DHT22;10358;49.590;11.030;2024-02-16T00:14:15;7.30;99.90
20398;DHT22;10358;49.590;11.030;2024-02-16T00:16:41;7.30;99.90
20398;DHT22;10358;49.590;11.030;2024-02-16T00:19:06;7.30;99.90
20398;DHT22;10358;49.590;11.030;2024-02-16T00:21:32;7.30;99.90
20398;DHT22;10358;49.590;11.030;2024-02-16T00:23:58;7.30;99.90
20398;DHT22;10358;49.590;11.030;2024-02-16T00:26:23;7.30;99.90
20398;DHT22;10358;49.590;11.030;2024-02-16T00:28:49;7.30;99.90
20398;DHT22;10358;49.590;11.030;2024-02-16T00:31:14;7.30;99.90
20398;DHT22;10358;49.590;11.030;2024-02-16T00:33:40;7.30;99.90
20398;DHT22;10358;49.590;11.030;2024-02-16T00:36:06;7.50;99.90
20398;DHT22;10358;49.590;11.030;2024-02-16T00:38:32;7.50;99.90
20398;DHT22;10358;49.590;11.030;2024-02-16T00:40:57;7.50;99.90
20398;DHT22;10358;49.590;11.030;2024-02-16T00:43:23;7.50;99.90
20398;DHT22;10358;49.590;11.030;2024-02-16T00:45:49;7.60;99.90
20398;DHT22;10358;49.590;11.030;2024-02-16T00:48:15;7.60;99.90
20398;DHT22;10358;49.590;11.030;2024-02-16T00:50:40;7.60;99.90
20398;DHT22;10358;49.590;11.030;2024-02-16T00:53:08;7.60;99.90
20398;DHT22;10358;49.590;11.030;2024-02-16T00:55:33;7.60;99.90
20398;DHT22;10358;49.590;11.030;2024-02-16T00:57:59;7.60;99.90
20398;DHT22;10358;49.590;11.030;2024-02-16T01:00:24;7.50;99.90
20398;DHT22;10358;49.590;11.030;2024-02-16T01:02:51;7.50;99.90
20398;DHT22;10358;49.590;11.030;2024-02-16T01:05:18;7.50;99.90
20398;DHT22;10358;49.590;11.030;2024-02-16T01:07:44;7.40;99.90
20398;DHT22;10358;49.590;11.030;2024-02-16T01:10:11;7.50;99.90
20398;DHT22;10358;49.590;11.030;2024-02-16T01:12:37;7.40;99.90
20398;DHT22;10358;49.590;11.030;2024-02-16T01:15:03;7.40;99.90
20398;DHT22;10358;49.590;11.030;2024-02-16T01:17:29;7.50;99.90
20398;DHT22;10358;49.590;11.030;2024-02-16T01:19:55;7.50;99.90
20398;DHT22;10358;49.590;11.030;2024-02-16T01:22:20;7.60;99.90
20398;DHT22;10358;49.590;11.030;2024-02-16T01:24:46;7.60;99.90
20398;DHT22;10358;49.590;11.030;2024-02-16T01:27:11;7.60;99.90
20398;DHT22;10358;49.590;11.030;2024-02-16T01:29:37;7.60;99.90
20398;DHT22;10358;49.590;11.030;2024-02-16T01:32:02;7.60;99.90
20398;DHT22;10358;49.590;11.030;2024-02-16T01:34:28;7.50;99.90
20398;DHT22;10358;49.590;11.030;2024-02-16T01:36:56;7.50;99.90
20398;DHT22;10358;49.590;11.030;2024-02-16T01:39:21;7.60;99.90
20398;DHT22;10358;49.590;11.030;2024-02-16T01:41:47;7.60;99.90
20398;DHT22;10358;49.590;11.030;2024-02-16T01:44:12;7.60;99.90
20398;DHT22;10358;49.590;11.030;2024-02-16T01:46:39;7.60;99.90
20398;DHT22;10358;49.590;11.030;2024-02-16T01:49:04;7.60;99.90
20398;DHT22;10358;49.590;11.030;2024-02-16T01:51:31;7.60;99.90
20398;DHT22;10358;49.590;11.030;2024-02-16T01:53:57;7.50;99.90
20398;DHT22;10358;49.590;11.030;2024-02-16T01:56:23;7.50;99.90
20398;DHT22;10358;49.590;11.030;2024-02-16T01:58:50;7.40;99.90
20398;DHT22;10358;49.590;11.030;2024-02-16T02:01:16;7.40;99.90
20398;DHT22;10358;49.590;11.030;2024-02-16T02:03:41;7.30;99.90
20398;DHT22;10358;49.590;11.030;2024-02-16T02:06:07;7.40;99.90
20398;DHT22;10358;49.590;11.030;2024-02-16T02:08:33;7.40;99.90
20398;DHT22;10358;49.590;11.030;2024-02-16T02:10:58;7.40;99.90
20398;DHT22;10358;49.590;11.030;2024-02-16T02:13:24;7.40;99.90
20398;DHT22;10358;49.590;11.030;2024-02-16T02:15:50;7.40;99.90
20398;DHT22;10358;49.590;11.030;2024-02-16T02:18:15;7.40;99.90
20398;DHT22;10358;49.590;11.030;2024-02-16T02:20:41;7.40;99.90
20398;DHT22;10358;49.590;11.030;2024-02-16T02:23:07;7.40;99.90
20398;DHT22;10358;49.590;11.030;2024-02-16T02:25:33;7.30;99.90
20398;DHT22;10358;49.590;11.030;2024-02-16T02:28:00;7.30;99.90
20398;DHT22;10358;49.590;11.030;2024-02-16T02:30:28;7.30;99.90
20398;DHT22;10358;49.590;11.030;2024-02-16T02:32:53;7.30;99.90
20398;DHT22;10358;49.590;11.030;2024-02-16T02:35:19;7.30;99.90
20398;DHT22;10358;49.590;11.030;2024-02-16T02:37:45;7.20;99.90
20398;DHT22;10358;49.590;11.030;2024-02-16T02:40:11;7.20;99.90
20398;DHT22;10358;49.590;11.030;2024-02-16T02:42:37;7.20;99.90
20398;DHT22;10358;49.590;11.030;2024-02-16T02:45:03;7.30;99.90
20398;DHT22;10358;49.590;11.030;2024-02-16T02:47:29;7.30;99.90
20398;DHT22;10358;49.590;11.030;2024-02-16T02:49:55;7.20;99.90
20398;DHT22;10358;49.590;11.030;2024-02-16T02:52:21;7.30;99.90
20398;DHT22;10358;49.590;11.030;2024-02-16T02:54:47;7.30;99.90
20398;DHT22;10358;49.590;11.030;2024-02-16T02:57:12;7.30;99.90
20398;DHT22;10358;49.590;11.030;2024-02-16T02:59:38;7.30;99.90
20398;DHT22;10358;49.590;11.030;2024-02-16T03:02:04;7.30;99.90
20398;DHT22;10358;49.590;11.030;2024-02-16T03:04:29;7.30;99.90
20398;DHT22;10358;49.590;11.030;2024-02-16T03:06:55;7.30;99.90
20398;DHT22;10358;49.590;11.030;2024-02-16T03:09:20;7.30;99.90
20398;DHT22;10358;49.590;11.030;2024-02-16T03:11:48;7.30;99.90
20398;DHT22;10358;49.590;11.030;2024-02-16T03:14:13;7.30;99.90
20398;DHT22;10358;49.590;11.030;2024-02-16T03:16:39;7.30;99.90
20398;DHT22;10358;49.590;11.030;2024-02-16T03:19:06;7.30;99.90
20398;DHT22;10358;49.590;11.030;2024-02-16T03:21:34;7.20;99.90
20398;DHT22;10358;49.590;11.030;2024-02-16T03:24:00;7.20;99.90
20398;DHT22;10358;49.590;11.030;2024-02-16T03:26:26;7.10;99.90
20398;DHT22;10358;49.590;11.030;2024-02-16T03:28:51;7.10;99.90
20398;DHT22;10358;49.590;11.030;2024-02-16T03:31:24;7.10;99.90
20398;DHT22;10358;49.590;11.030;2024-02-16T03:33:51;7.10;99.90
20398;DHT22;10358;49.590;11.030;2024-02-16T03:36:17;7.10;99.90
20398;DHT22;10358;49.590;11.030;2024-02-16T03:38:44;7.10;99.90
20398;DHT22;10358;49.590;11.030;2024-02-16T03:41:15;7.10;99.90
20398;DHT22;10358;49.590;11.030;2024-02-16T03:43:41;7.10;99.90
20398;DHT22;10358;49.590;11.030;2024-02-16T03:46:06;7.10;99.90
20398;DHT22;10358;49.590;11.030;2024-02-16T03:48:32;7.10;99.90
20398;DHT22;10358;49.590;11.030;2024-02-16T03:50:57;7.20;99.90
20398;DHT22;10358;49.590;11.030;2024-02-16T03:53:23;7.20;99.90
20398;DHT22;10358;49.590;11.030;2024-02-16T03:55:49;7.20;99.90
20398;DHT22;10358;49.590;11.030;2024-02-16T03:58:15;7.20;99.90
20398;DHT22;10358;49.590;11.030;2024-02-16T04:00:40;7.10;99.90
20398;DHT22;10358;49.590;11.030;2024-02-16T04:03:06;7.10;99.90
20398;DHT22;10358;49.590;11.030;2024-02-16T04:05:31;7.10;99.90
20398;DHT22;10358;49.590;11.030;2024-02-16T04:07:59;7.10;99.90
20398;DHT22;10358;49.590;11.030;2024-02-16T04:10:27;7.10;99.90
20398;DHT22;10358;49.590;11.030;2024-02-16T04:12:53;7.10;99.90
20398;DHT22;10358;49.590;11.030;2024-02-16T04:15:19;7.10;99.90
20398;DHT22;10358;49.590;11.030;2024-02-16T04:17:45;7.10;99.90
20398;DHT22;10358;49.590;11.030;2024-02-16T04:20:10;7.20;99.90
20398;DHT22;10358;49.590;11.030;2024-02-16T04:22:36;7.20;99.90
20398;DHT22;10358;49.590;11.030;2024-02-16T04:25:03;7.20;99.90
20398;DHT22;10358;49.590;11.030;2024-02-16T04:27:29;7.30;99.90
20398;DHT22;10358;49.590;11.030;2024-02-16T04:29:55;7.30;99.90
20398;DHT22;10358;49.590;11.030;2024-02-16T04:32:21;7.30;99.90
20398;DHT22;10358;49.590;11.030;2024-02-16T04:34:46;7.30;99.90
20398;DHT22;10358;49.590;11.030;2024-02-16T04:37:13;7.20;99.90
20398;DHT22;10358;49.590;11.030;2024-02-16T04:39:40;7.20;99.90
20398;DHT22;10358;49.590;11.030;2024-02-16T04:42:05;7.20;99.90
20398;DHT22;10358;49.590;11.030;2024-02-16T04:44:31;7.20;99.90
20398;DHT22;10358;49.590;11.030;2024-02-16T04:46:56;7.40;99.90
20398;DHT22;10358;49.590;11.030;2024-02-16T04:49:22;7.40;99.90
20398;DHT22;10358;49.590;11.030;2024-02-16T04:51:47;7.40;99.90
20398;DHT22;10358;49.590;11.030;2024-02-16T04:54:13;7.50;99.90
20398;DHT22;10358;49.590;11.030;2024-02-16T04:56:39;7.50;99.90
20398;DHT22;10358;49.590;11.030;2024-02-16T04:59:05;7.50;99.90
20398;DHT22;10358;49.590;11.030;2024-02-16T05:01:30;7.50;99.90
20398;DHT22;10358;49.590;11.030;2024-02-16T05:03:58;7.60;99.90
20398;DHT22;10358;49.590;11.030;2024-02-16T05:06:23;7.60;99.90
20398;DHT22;10358;49.590;11.030;2024-02-16T05:08:49;7.70;99.90
20398;DHT22;10358;49.590;11.030;2024-02-16T05:11:15;7.70;99.90
20398;DHT22;10358;49.590;11.030;2024-02-16T05:13:41;7.70;99.90
20398;DHT22;10358;49.590;11.030;2024-02-16T05:16:11;7.80;99.90
20398;DHT22;10358;49.590;11.030;2024-02-16T05:18:37;7.80;99.90
20398;DHT22;10358;49.590;11.030;2024-02-16T05:21:03;7.90;99.90
20398;DHT22;10358;49.590;11.030;2024-02-16T05:23:29;7.90;99.90
20398;DHT22;10358;49.590;11.030;2024-02-16T05:25:54;7.90;99.90
20398;DHT22;10358;49.590;11.030;2024-02-16T05:28:20;7.90;99.90
20398;DHT22;10358;49.590;11.030;2024-02-16T05:30:45;7.90;99.90
20398;DHT22;10358;49.590;11.030;2024-02-16T05:33:11;7.90;99.90
20398;DHT22;10358;49.590;11.030;2024-02-16T05:35:39;7.90;99.90
20398;DHT22;10358;49.590;11.030;2024-02-16T05:38:06;8.00;99.90
20398;DHT22;10358;49.590;11.030;2024-02-16T05:40:36;7.90;99.90
20398;DHT22;10358;49.590;11.030;2024-02-16T05:43:19;7.90;99.90
20398;DHT22;10358;49.590;11.030;2024-02-16T05:45:45;8.00;99.90
20398;DHT22;10358;49.590;11.030;2024-02-16T05:48:11;8.00;99.90
20398;DHT22;10358;49.590;11.030;2024-02-16T05:50:37;7.90;99.90
20398;DHT22;10358;49.590;11.030;2024-02-16T05:53:03;8.00;99.90
20398;DHT22;10358;49.590;11.030;2024-02-16T05:55:29;8.00;99.90
20398;DHT22;10358;49.590;11.030;2024-02-16T05:57:54;8.00;99.90
20398;DHT22;10358;49.590;11.030;2024-02-16T06:00:21;7.90;99.90
20398;DHT22;10358;49.590;11.030;2024-02-16T06:02:47;7.90;99.90
20398;DHT22;10358;49.590;11.030;2024-02-16T06:05:12;7.90;99.90
20398;DHT22;10358;49.590;11.030;2024-02-16T06:07:38;7.90;99.90
20398;DHT22;10358;49.590;11.030;2024-02-16T06:10:05;7.90;99.90
20398;DHT22;10358;49.590;11.030;2024-02-16T06:12:36;7.90;99.90
20398;DHT22;10358;49.590;11.030;2024-02-16T06:15:02;7.80;99.90
20398;DHT22;10358;49.590;11.030;2024-02-16T06:17:28;7.80;99.90
20398;DHT22;10358;49.590;11.030;2024-02-16T06:19:53;7.80;99.90
20398;DHT22;10358;49.590;11.030;2024-02-16T06:22:19;7.80;99.90
20398;DHT22;10358;49.590;11.030;2024-02-16T06:24:45;7.80;99.90
20398;DHT22;10358;49.590;11.030;2024-02-16T06:27:10;7.80;99.90
20398;DHT22;10358;49.590;11.030;2024-02-16T06:29:36;7.80;99.90
20398;DHT22;10358;49.590;11.030;2024-02-16T06:32:01;7.70;99.90
20398;DHT22;10358;49.590;11.030;2024-02-16T06:34:30;7.70;99.90
20398;DHT22;10358;49.590;11.030;2024-02-16T06:36:57;7.70;99.90
20398;DHT22;10358;49.590;11.030;2024-02-16T06:39:22;7.70;99.90
20398;DHT22;10358;49.590;11.030;2024-02-16T06:41:48;7.80;99.90
20398;DHT22;10358;49.590;11.030;2024-02-16T06:44:16;7.80;99.90
20398;DHT22;10358;49.590;11.030;2024-02-16T06:46:42;7.80;99.90
20398;DHT22;10358;49.590;11.030;2024-02-16T06:49:08;7.80;99.90
20398;DHT22;10358;49.590;11.030;2024-02-16T06:51:34;7.80;99.90
20398;DHT22;10358;49.590;11.030;2024-02-16T06:53:59;7.80;99.90
20398;DHT22;10358;49.590;11.030;2024-02-16T06:56:26;7.80;99.90
20398;DHT22;10358;49.590;11.030;2024-02-16T06:58:51;7.80;99.90
20398;DHT22;10358;49.590;11.030;2024-02-16T07:01:17;7.90;99.90
20398;DHT22;10358;49.590;11.030;2024-02-16T07:03:45;7.90;99.90
20398;DHT22;10358;49.590;11.030;2024-02-16T07:06:12;7.90;99.90
20398;DHT22;10358;49.590;11.030;2024-02-16T07:08:40;7.90;99.90
20398;DHT22;10358;49.590;11.030;2024-02-16T07:11:05;7.90;99.90
20398;DHT22;10358;49.590;11.030;2024-02-16T07:13:34;7.90;99.90
20398;DHT22;10358;49.590;11.030;2024-02-16T07:16:00;8.00;99.90
20398;DHT22;10358;49.590;11.030;2024-02-16T07:18:25;8.00;99.90
20398;DHT22;10358;49.590;11.030;2024-02-16T07:20:51;8.00;99.90
20398;DHT22;10358;49.590;11.030;2024-02-16T07:23:17;8.10;99.90
20398;DHT22;10358;49.590;11.030;2024-02-16T07:25:43;8.10;99.90
20398;DHT22;10358;49.590;11.030;2024-02-16T07:28:08;8.10;99.90
20398;DHT22;10358;49.590;11.030;2024-02-16T07:30:36;8.10;99.90
20398;DHT22;10358;49.590;11.030;2024-02-16T07:33:05;8.20;99.90
20398;DHT22;10358;49.590;11.030;2024-02-16T07:35:32;8.30;99.90
20398;DHT22;10358;49.590;11.030;2024-02-16T07:37:58;8.40;99.90
20398;DHT22;10358;49.590;11.030;2024-02-16T07:40:24;8.40;99.90
20398;DHT22;10358;49.590;11.030;2024-02-16T07:42:49;8.50;99.90
20398;DHT22;10358;49.590;11.030;2024-02-16T07:45:15;8.60;99.90
20398;DHT22;10358;49.590;11.030;2024-02-16T07:47:43;8.70;99.90
20398;DHT22;10358;49.590;11.030;2024-02-16T07:50:09;8.80;99.90
20398;DHT22;10358;49.590;11.030;2024-02-16T07:52:35;8.90;99.90
20398;DHT22;10358;49.590;11.030;2024-02-16T07:55:01;9.00;99.90
20398;DHT22;10358;49.590;11.030;2024-02-16T07:57:26;9.10;99.90
20398;DHT22;10358;49.590;11.030;2024-02-16T07:59:52;9.20;99.90
20398;DHT22;10358;49.590;11.030;2024-02-16T08:02:18;9.30;99.90
20398;DHT22;10358;49.590;11.030;2024-02-16T08:04:48;9.50;99.90
20398;DHT22;10358;49.590;11.030;2024-02-16T08:07:14;9.60;99.90
20398;DHT22;10358;49.590;11.030;2024-02-16T08:09:39;9.70;99.90
20398;DHT22;10358;49.590;11.030;2024-02-16T08:12:05;9.80;99.90
20398;DHT22;10358;49.590;11.030;2024-02-16T08:14:33;9.90;99.90
20398;DHT22;10358;49.590;11.030;2024-02-16T08:16:59;10.10;99.90
20398;DHT22;10358;49.590;11.030;2024-02-16T08:19:32;10.20;99.90
20398;DHT22;10358;49.590;11.030;2024-02-16T08:21:59;10.20;99.90
20398;DHT22;10358;49.590;11.030;2024-02-16T08:24:25;10.30;99.90
20398;DHT22;10358;49.590;11.030;2024-02-16T08:26:51;10.40;99.90
20398;DHT22;10358;49.590;11.030;2024-02-16T08:29:16;10.40;99.90
20398;DHT22;10358;49.590;11.030;2024-02-16T08:31:42;10.50;99.90
20398;DHT22;10358;49.590;11.030;2024-02-16T08:34:09;10.60;99.90
20398;DHT22;10358;49.590;11.030;2024-02-16T08:36:36;10.70;99.90
20398;DHT22;10358;49.590;11.030;2024-02-16T08:39:03;10.80;99.90
20398;DHT22;10358;49.590;11.030;2024-02-16T08:41:28;10.80;99.90
20398;DHT22;10358;49.590;11.030;2024-02-16T08:43:54;10.90;99.90
20398;DHT22;10358;49.590;11.030;2024-02-16T08:46:22;11.00;99.90
20398;DHT22;10358;49.590;11.030;2024-02-16T08:48:48;11.10;99.90
20398;DHT22;10358;49.590;11.030;2024-02-16T08:51:14;11.20;99.90
20398;DHT22;10358;49.590;11.030;2024-02-16T08:53:40;11.40;99.90
20398;DHT22;10358;49.590;11.030;2024-02-16T08:56:09;11.50;99.90
20398;DHT22;10358;49.590;11.030;2024-02-16T08:58:36;11.70;99.90
20398;DHT22;10358;49.590;11.030;2024-02-16T09:01:02;11.80;99.90
20398;DHT22;10358;49.590;11.030;2024-02-16T09:03:28;11.80;99.90
20398;DHT22;10358;49.590;11.030;2024-02-16T09:05:53;11.80;99.90
20398;DHT22;10358;49.590;11.030;2024-02-16T09:08:19;11.90;99.90
20398;DHT22;10358;49.590;11.030;2024-02-16T09:10:44;11.90;99.90
20398;DHT22;10358;49.590;11.030;2024-02-16T09:13:10;11.90;99.90
20398;DHT22;10358;49.590;11.030;2024-02-16T09:15:36;11.80;99.90
20398;DHT22;10358;49.590;11.030;2024-02-16T09:18:02;11.80;99.90
20398;DHT22;10358;49.590;11.030;2024-02-16T09:20:28;11.80;99.90
20398;DHT22;10358;49.590;11.030;2024-02-16T09:22:54;11.70;99.90
20398;DHT22;10358;49.590;11.030;2024-02-16T09:25:19;11.70;99.90
20398;DHT22;10358;49.590;11.030;2024-02-16T09:27:46;11.70;99.90
20398;DHT22;10358;49.590;11.030;2024-02-16T09:30:12;11.70;99.90
20398;DHT22;10358;49.590;11.030;2024-02-16T09:32:41;11.80;99.90
20398;DHT22;10358;49.590;11.030;2024-02-16T09:35:08;11.90;99.90
20398;DHT22;10358;49.590;11.030;2024-02-16T09:37:35;12.00;99.90
20398;DHT22;10358;49.590;11.030;2024-02-16T09:40:01;12.10;99.90
20398;DHT22;10358;49.590;11.030;2024-02-16T09:42:29;12.20;99.90
20398;DHT22;10358;49.590;11.030;2024-02-16T09:44:55;12.20;99.90
20398;DHT22;10358;49.590;11.030;2024-02-16T09:47:21;12.30;99.90
20398;DHT22;10358;49.590;11.030;2024-02-16T09:49:48;12.40;99.90
20398;DHT22;10358;49.590;11.030;2024-02-16T09:52:13;12.40;99.90
20398;DHT22;10358;49.590;11.030;2024-02-16T09:54:39;12.50;99.90
20398;DHT22;10358;49.590;11.030;2024-02-16T09:57:05;12.50;99.90
20398;DHT22;10358;49.590;11.030;2024-02-16T09:59:31;12.60;99.90
20398;DHT22;10358;49.590;11.030;2024-02-16T10:02:04;12.50;99.90
20398;DHT22;10358;49.590;11.030;2024-02-16T10:04:29;12.50;99.90
20398;DHT22;10358;49.590;11.030;2024-02-16T10:06:55;12.60;99.90
20398;DHT22;10358;49.590;11.030;2024-02-16T10:09:25;12.60;99.90
20398;DHT22;10358;49.590;11.030;2024-02-16T10:11:51;12.70;99.90
20398;DHT22;10358;49.590;11.030;2024-02-16T10:14:17;12.80;99.90
20398;DHT22;10358;49.590;11.030;2024-02-16T10:16:47;12.90;99.90
20398;DHT22;10358;49.590;11.030;2024-02-16T10:19:13;13.00;99.90
20398;DHT22;10358;49.590;11.030;2024-02-16T10:21:40;13.20;99.90
20398;DHT22;10358;49.590;11.030;2024-02-16T10:24:07;13.30;99.90
20398;DHT22;10358;49.590;11.030;2024-02-16T10:26:34;13.40;99.90
20398;DHT22;10358;49.590;11.030;2024-02-16T10:29:04;13.50;99.90
20398;DHT22;10358;49.590;11.030;2024-02-16T10:31:30;13.60;99.90
20398;DHT22;10358;49.590;11.030;2024-02-16T10:34:05;13.70;99.90
20398;DHT22;10358;49.590;11.030;2024-02-16T10:36:36;13.70;99.90
20398;DHT22;10358;49.590;11.030;2024-02-16T10:39:03;13.80;99.90
20398;DHT22;10358;49.590;11.030;2024-02-16T10:41:33;13.90;99.90
20398;DHT22;10358;49.590;11.030;2024-02-16T10:44:04;13.90;99.90
20398;DHT22;10358;49.590;11.030;2024-02-16T10:46:30;14.00;99.90
20398;DHT22;10358;49.590;11.030;2024-02-16T10:48:56;14.00;99.90
20398;DHT22;10358;49.590;11.030;2024-02-16T10:53:55;14.10;99.90
20398;DHT22;10358;49.590;11.030;2024-02-16T10:56:35;14.20;99.90
20398;DHT22;10358;49.590;11.030;2024-02-16T10:59:04;14.20;99.90
20398;DHT22;10358;49.590;11.030;2024-02-16T11:04:07;14.30;99.90
20398;DHT22;10358;49.590;11.030;2024-02-16T11:06:45;14.30;99.90
20398;DHT22;10358;49.590;11.030;2024-02-16T11:09:11;14.40;99.90
20398;DHT22;10358;49.590;11.030;2024-02-16T11:11:36;14.40;99.90
20398;DHT22;10358;49.590;11.030;2024-02-16T11:14:02;14.50;99.90
20398;DHT22;10358;49.590;11.030;2024-02-16T11:16:29;14.50;99.90
20398;DHT22;10358;49.590;11.030;2024-02-16T11:18:56;14.50;99.90
20398;DHT22;10358;49.590;11.030;2024-02-16T11:21:22;14.50;99.90
20398;DHT22;10358;49.590;11.030;2024-02-16T11:23:47;14.50;99.90
20398;DHT22;10358;49.590;11.030;2024-02-16T11:26:14;14.60;99.90
20398;DHT22;10358;49.590;11.030;2024-02-16T11:28:41;14.60;99.90
20398;DHT22;10358;49.590;11.030;2024-02-16T11:31:07;14.60;99.90
20398;DHT22;10358;49.590;11.030;2024-02-16T11:33:33;14.60;99.90
20398;DHT22;10358;49.590;11.030;2024-02-16T11:36:04;14.50;99.90
20398;DHT22;10358;49.590;11.030;2024-02-16T11:38:33;14.50;99.90
20398;DHT22;10358;49.590;11.030;2024-02-16T11:43:26;14.50;99.90
20398;DHT22;10358;49.590;11.030;2024-02-16T11:45:52;14.50;99.90
20398;DHT22;10358;49.590;11.030;2024-02-16T11:48:27;14.60;99.90
20398;DHT22;10358;49.590;11.030;2024-02-16T11:51:04;14.60;99.90
20398;DHT22;10358;49.590;11.030;2024-02-16T11:53:30;14.60;99.90
20398;DHT22;10358;49.590;11.030;2024-02-16T11:55:56;14.60;99.90
20398;DHT22;10358;49.590;11.030;2024-02-16T11:58:22;14.60;99.90
20398;DHT22;10358;49.590;11.030;2024-02-16T12:00:49;14.60;99.90
20398;DHT22;10358;49.590;11.030;2024-02-16T12:03:22;14.70;99.90
20398;DHT22;10358;49.590;11.030;2024-02-16T12:05:58;14.70;99.90
20398;DHT22;10358;49.590;11.030;2024-02-16T12:08:31;14.70;99.90
20398;DHT22;10358;49.590;11.030;2024-02-16T12:10:57;14.70;99.90
20398;DHT22;10358;49.590;11.030;2024-02-16T12:13:22;14.70;99.90
20398;DHT22;10358;49.590;11.030;2024-02-16T12:15:50;14.80;99.90
20398;DHT22;10358;49.590;11.030;2024-02-16T12:18:26;14.80;99.90
20398;DHT22;10358;49.590;11.030;2024-02-16T12:21:02;14.70;99.90
20398;DHT22;10358;49.590;11.030;2024-02-16T12:23:28;14.70;99.90
20398;DHT22;10358;49.590;11.030;2024-02-16T12:25:56;14.70;99.90
20398;DHT22;10358;49.590;11.030;2024-02-16T12:28:24;14.60;99.90
20398;DHT22;10358;49.590;11.030;2024-02-16T12:30:50;14.60;99.90
20398;DHT22;10358;49.590;11.030;2024-02-16T12:33:16;14.50;99.90
20398;DHT22;10358;49.590;11.030;2024-02-16T12:35:42;14.60;99.90
20398;DHT22;10358;49.590;11.030;2024-02-16T12:38:07;14.50;99.90
20398;DHT22;10358;49.590;11.030;2024-02-16T12:40:33;14.50;99.90
20398;DHT22;10358;49.590;11.030;2024-02-16T12:42:58;14.50;99.90
20398;DHT22;10358;49.590;11.030;2024-02-16T12:45:24;14.60;99.90
20398;DHT22;10358;49.590;11.030;2024-02-16T12:47:50;14.60;99.90
20398;DHT22;10358;49.590;11.030;2024-02-16T12:50:16;14.70;99.90
20398;DHT22;10358;49.590;11.030;2024-02-16T12:52:42;14.70;99.90
20398;DHT22;10358;49.590;11.030;2024-02-16T12:55:08;14.70;99.90
20398;DHT22;10358;49.590;11.030;2024-02-16T12:57:36;14.80;99.90
20398;DHT22;10358;49.590;11.030;2024-02-16T13:00:03;14.90;99.90
20398;DHT22;10358;49.590;11.030;2024-02-16T13:02:29;14.90;99.90
20398;DHT22;10358;49.590;11.030;2024-02-16T13:04:55;14.90;99.90
20398;DHT22;10358;49.590;11.030;2024-02-16T13:07:20;15.00;99.90
20398;DHT22;10358;49.590;11.030;2024-02-16T13:09:46;15.10;99.90
20398;DHT22;10358;49.590;11.030;2024-02-16T13:12:12;15.10;99.90
20398;DHT22;10358;49.590;11.030;2024-02-16T13:14:37;15.10;99.90
20398;DHT22;10358;49.590;11.030;2024-02-16T13:17:04;15.10;99.90
20398;DHT22;10358;49.590;11.030;2024-02-16T13:19:29;15.20;99.90
20398;DHT22;10358;49.590;11.030;2024-02-16T13:21:55;15.30;99.90
20398;DHT22;10358;49.590;11.030;2024-02-16T13:24:20;15.50;99.90
20398;DHT22;10358;49.590;11.030;2024-02-16T13:26:46;15.60;99.90
20398;DHT22;10358;49.590;11.030;2024-02-16T13:29:12;15.60;99.90
20398;DHT22;10358;49.590;11.030;2024-02-16T13:31:37;15.70;99.90
20398;DHT22;10358;49.590;11.030;2024-02-16T13:34:05;15.70;99.90
20398;DHT22;10358;49.590;11.030;2024-02-16T13:36:30;15.60;99.90
20398;DHT22;10358;49.590;11.030;2024-02-16T13:38:56;15.60;99.90
20398;DHT22;10358;49.590;11.030;2024-02-16T13:41:21;15.60;99.90
20398;DHT22;10358;49.590;11.030;2024-02-16T13:43:47;15.50;99.90
20398;DHT22;10358;49.590;11.030;2024-02-16T13:46:13;15.50;99.90
20398;DHT22;10358;49.590;11.030;2024-02-16T13:48:38;15.40;99.90
20398;DHT22;10358;49.590;11.030;2024-02-16T13:51:06;15.40;99.90
20398;DHT22;10358;49.590;11.030;2024-02-16T13:53:32;15.30;99.90
20398;DHT22;10358;49.590;11.030;2024-02-16T13:55:58;15.30;99.90
20398;DHT22;10358;49.590;11.030;2024-02-16T13:58:26;15.30;99.90
20398;DHT22;10358;49.590;11.030;2024-02-16T14:00:52;15.30;99.90
20398;DHT22;10358;49.590;11.030;2024-02-16T14:03:18;15.40;99.90
20398;DHT22;10358;49.590;11.030;2024-02-16T14:05:45;15.40;99.90
20398;DHT22;10358;49.590;11.030;2024-02-16T14:08:12;15.40;99.90
20398;DHT22;10358;49.590;11.030;2024-02-16T14:10:38;15.50;99.90
20398;DHT22;10358;49.590;11.030;2024-02-16T14:13:04;15.50;99.90
20398;DHT22;10358;49.590;11.030;2024-02-16T14:15:29;15.60;99.90
20398;DHT22;10358;49.590;11.030;2024-02-16T14:17:55;15.70;99.90
20398;DHT22;10358;49.590;11.030;2024-02-16T14:20:20;15.70;99.90
20398;DHT22;10358;49.590;11.030;2024-02-16T14:22:47;15.80;99.90
20398;DHT22;10358;49.590;11.030;2024-02-16T14:25:13;15.90;99.90
20398;DHT22;10358;49.590;11.030;2024-02-16T14:27:39;15.80;99.90
20398;DHT22;10358;49.590;11.030;2024-02-16T14:30:05;15.80;99.90
20398;DHT22;10358;49.590;11.030;2024-02-16T14:32:31;15.80;99.90
20398;DHT22;10358;49.590;11.030;2024-02-16T14:34:57;15.80;99.90
20398;DHT22;10358;49.590;11.030;2024-02-16T14:37:22;15.80;99.90
20398;DHT22;10358;49.590;11.030;2024-02-16T14:39:48;15.80;99.90
20398;DHT22;10358;49.590;11.030;2024-02-16T14:42:14;15.80;99.90
20398;DHT22;10358;49.590;11.030;2024-02-16T14:44:39;15.80;99.90
20398;DHT22;10358;49.590;11.030;2024-02-16T14:47:05;15.90;99.90
20398;DHT22;10358;49.590;11.030;2024-02-16T14:49:31;15.90;99.90
20398;DHT22;10358;49.590;11.030;2024-02-16T14:51:57;15.90;99.90
20398;DHT22;10358;49.590;11.030;2024-02-16T14:54:23;15.90;99.90
20398;DHT22;10358;49.590;11.030;2024-02-16T14:56:54;15.80;99.90
20398;DHT22;10358;49.590;11.030;2024-02-16T14:59:19;15.80;99.90
20398;DHT22;10358;49.590;11.030;2024-02-16T15:01:45;15.80;99.90
20398;DHT22;10358;49.590;11.030;2024-02-16T15:04:11;15.80;99.90
20398;DHT22;10358;49.590;11.030;2024-02-16T15:06:36;15.80;99.90
20398;DHT22;10358;49.590;11.030;2024-02-16T15:09:02;15.70;99.90
20398;DHT22;10358;49.590;11.030;2024-02-16T15:11:30;15.70;99.90
20398;DHT22;10358;49.590;11.030;2024-02-16T15:13:56;15.60;99.90
20398;DHT22;10358;49.590;11.030;2024-02-16T15:16:21;15.50;99.90
20398;DHT22;10358;49.590;11.030;2024-02-16T15:18:47;15.50;99.90
20398;DHT22;10358;49.590;11.030;2024-02-16T15:21:12;15.40;99.90
20398;DHT22;10358;49.590;11.030;2024-02-16T15:23:38;15.40;99.90
20398;DHT22;10358;49.590;11.030;2024-02-16T15:26:04;15.30;99.90
20398;DHT22;10358;49.590;11.030;2024-02-16T15:28:33;15.30;99.90